createdAt,value
2018-03-02T00:00:21.630Z,18.50
2018-03-02T00:02:50.172Z,18.40
2018-03-02T00:05:18.799Z,18.50
2018-03-02T00:07:49.404Z,18.50
2018-03-02T00:10:19.023Z,18.50
2018-03-02T00:12:46.677Z,18.40
2018-03-02T00:15:14.303Z,18.50
2018-03-02T00:17:42.647Z,18.50
2018-03-02T00:20:10.744Z,18.50
2018-03-02T00:22:39.406Z,18.50
2018-03-02T00:25:08.690Z,18.50
2018-03-02T00:27:37.051Z,18.40
2018-03-02T00:30:06.791Z,18.50
2018-03-02T00:32:35.227Z,18.50
2018-03-02T00:35:04.737Z,18.50
2018-03-02T00:37:33.724Z,18.40
2018-03-02T00:40:03.745Z,18.50
2018-03-02T00:42:32.020Z,18.50
2018-03-02T00:45:01.524Z,18.50
2018-03-02T00:47:29.805Z,18.50
2018-03-02T00:49:59.631Z,18.50
2018-03-02T00:52:28.702Z,18.50
2018-03-02T00:54:57.542Z,18.50
2018-03-02T00:57:26.684Z,18.50
2018-03-02T00:59:55.475Z,18.50
2018-03-02T01:02:24.730Z,18.50
2018-03-02T01:04:53.457Z,18.40
2018-03-02T01:07:22.674Z,18.50
2018-03-02T01:09:52.233Z,18.50
2018-03-02T01:12:21.044Z,18.40
2018-03-02T01:14:50.139Z,18.50
2018-03-02T01:17:19.129Z,18.50
2018-03-02T01:19:47.915Z,18.50
2018-03-02T01:22:16.370Z,18.50
2018-03-02T01:24:45.269Z,18.50
2018-03-02T01:27:14.493Z,18.50
2018-03-02T01:29:44.674Z,18.50
2018-03-02T01:32:13.285Z,18.50
2018-03-02T01:34:43.195Z,18.50
2018-03-02T01:37:10.804Z,18.40
2018-03-02T01:39:38.734Z,18.50
2018-03-02T01:42:06.357Z,18.40
2018-03-02T01:44:33.940Z,18.40
2018-03-02T01:47:01.517Z,18.40
2018-03-02T01:49:29.271Z,18.40
2018-03-02T01:51:57.035Z,18.40
2018-03-02T01:54:24.624Z,18.40
2018-03-02T01:56:52.196Z,18.40
2018-03-02T01:59:20.538Z,18.40
2018-03-02T02:01:48.143Z,18.40
2018-03-02T02:04:16.487Z,18.40
2018-03-02T02:06:44.064Z,18.40
2018-03-02T02:09:11.745Z,18.40
2018-03-02T02:11:39.567Z,18.40
2018-03-02T02:14:07.140Z,18.40
2018-03-02T02:16:35.486Z,18.40
2018-03-02T02:19:03.079Z,18.40
2018-03-02T02:21:31.416Z,18.40
2018-03-02T02:23:58.980Z,18.40
2018-03-02T02:26:26.546Z,18.40
2018-03-02T02:28:54.123Z,18.50
2018-03-02T02:31:21.705Z,18.50
2018-03-02T02:33:49.287Z,18.50
2018-03-02T02:36:16.851Z,18.50
2018-03-02T02:38:44.420Z,18.50
2018-03-02T02:41:11.991Z,18.50
2018-03-02T02:43:39.555Z,18.50
2018-03-02T02:46:07.128Z,18.50
2018-03-02T02:48:35.472Z,18.50
2018-03-02T02:51:03.058Z,18.40
2018-03-02T02:53:30.615Z,18.50
2018-03-02T02:55:58.208Z,18.50
2018-03-02T02:58:25.778Z,18.50
2018-03-02T03:00:53.356Z,18.50
2018-03-02T03:03:20.921Z,18.50
2018-03-02T03:05:48.507Z,18.50
2018-03-02T03:08:16.130Z,18.50
2018-03-02T03:10:43.731Z,18.50
2018-03-02T03:13:11.291Z,18.50
2018-03-02T03:15:39.316Z,18.50
2018-03-02T03:18:06.988Z,18.50
2018-03-02T03:20:34.647Z,18.50
2018-03-02T03:23:02.307Z,18.50
2018-03-02T03:25:29.866Z,18.50
2018-03-02T03:27:57.455Z,18.50
2018-03-02T03:30:25.014Z,18.50
2018-03-02T03:32:52.607Z,18.50
2018-03-02T03:35:20.176Z,18.50
2018-03-02T03:37:47.764Z,18.50
2018-03-02T03:40:15.319Z,18.50
2018-03-02T03:42:42.911Z,18.50
2018-03-02T03:45:11.366Z,18.50
2018-03-02T03:47:39.195Z,18.50
2018-03-02T03:50:06.774Z,18.50
2018-03-02T03:52:34.532Z,18.50
2018-03-02T03:55:02.136Z,18.50
2018-03-02T03:57:30.459Z,18.50
2018-03-02T03:59:58.025Z,18.40
2018-03-02T04:02:25.583Z,18.50
2018-03-02T04:04:53.140Z,18.50
2018-03-02T04:07:20.749Z,18.50
2018-03-02T04:09:49.123Z,18.50
2018-03-02T04:12:17.543Z,18.50
2018-03-02T04:14:45.106Z,18.40
2018-03-02T04:17:12.662Z,18.50
2018-03-02T04:19:40.247Z,18.50
2018-03-02T04:22:09.347Z,18.50
2018-03-02T04:24:36.935Z,18.50
2018-03-02T04:27:04.507Z,18.50
2018-03-02T04:29:32.082Z,18.50
2018-03-02T04:31:59.648Z,18.50
2018-03-02T04:34:27.278Z,18.50
2018-03-02T04:36:54.839Z,18.50
2018-03-02T04:39:22.431Z,18.50
2018-03-02T04:41:49.991Z,18.50
2018-03-02T04:44:17.579Z,18.50
2018-03-02T04:46:45.180Z,18.50
2018-03-02T04:49:12.804Z,18.50
2018-03-02T04:51:41.127Z,18.50
2018-03-02T04:54:08.712Z,18.40
2018-03-02T04:56:36.280Z,18.50
2018-03-02T04:59:03.875Z,18.50
2018-03-02T05:01:31.477Z,18.50
2018-03-02T05:03:59.100Z,18.50
2018-03-02T05:06:26.666Z,18.50
2018-03-02T05:09:54.383Z,18.50
2018-03-02T05:12:21.950Z,18.50
2018-03-02T05:14:50.527Z,18.50
2018-03-02T05:17:18.350Z,18.50
2018-03-02T05:19:46.415Z,18.50
2018-03-02T05:22:14.043Z,18.50
2018-03-02T05:24:42.389Z,18.50
2018-03-02T05:27:10.031Z,18.50
2018-03-02T05:29:37.804Z,18.50
2018-03-02T05:32:05.390Z,18.50
2018-03-02T05:34:33.718Z,18.50
2018-03-02T05:37:01.288Z,18.50
2018-03-02T05:39:28.896Z,18.50
2018-03-02T05:41:58.663Z,18.50
2018-03-02T05:44:26.231Z,18.50
2018-03-02T05:46:54.058Z,18.50
2018-03-02T05:49:21.817Z,18.50
2018-03-02T05:51:49.402Z,18.50
2018-03-02T05:54:16.975Z,18.50
2018-03-02T05:56:44.800Z,18.50
2018-03-02T05:59:12.597Z,18.50
2018-03-02T06:01:40.202Z,18.50
2018-03-02T06:04:08.496Z,18.50
2018-03-02T06:06:38.000Z,18.50
2018-03-02T06:09:05.643Z,18.50
2018-03-02T06:11:33.266Z,18.50
2018-03-02T06:14:01.640Z,18.50
2018-03-02T06:17:14.347Z,18.50
2018-03-02T06:19:41.950Z,18.50
2018-03-02T06:22:09.552Z,18.50
2018-03-02T06:24:37.347Z,18.50
2018-03-02T06:27:05.786Z,18.50
2018-03-02T06:29:33.415Z,18.50
2018-03-02T06:32:01.841Z,18.50
2018-03-02T06:34:29.444Z,18.50
2018-03-02T06:36:57.165Z,18.50
2018-03-02T06:39:24.881Z,18.50
2018-03-02T06:41:52.515Z,18.50
2018-03-02T06:44:20.882Z,18.50
2018-03-02T06:46:49.248Z,18.50
2018-03-02T06:49:16.873Z,18.50
2018-03-02T06:51:44.499Z,18.50
2018-03-02T06:54:12.182Z,18.50
2018-03-02T06:56:39.825Z,18.50
2018-03-02T06:59:07.423Z,18.50
2018-03-02T07:01:35.012Z,18.50
2018-03-02T07:04:03.355Z,18.50
2018-03-02T07:06:30.963Z,18.50
2018-03-02T07:08:59.347Z,18.50
2018-03-02T07:11:26.924Z,18.50
2018-03-02T07:13:54.605Z,18.50
2018-03-02T07:16:22.215Z,18.50
2018-03-02T07:18:49.839Z,18.50
2018-03-02T07:21:17.713Z,18.50
2018-03-02T07:23:45.329Z,18.50
2018-03-02T07:26:12.966Z,18.50
2018-03-02T07:28:40.638Z,18.50
2018-03-02T07:31:08.273Z,18.50
2018-03-02T07:33:36.741Z,18.50
2018-03-02T07:36:05.106Z,18.50
2018-03-02T07:38:32.713Z,18.50
2018-03-02T07:41:00.369Z,18.50
2018-03-02T07:43:28.557Z,18.50
2018-03-02T07:45:56.174Z,18.50
2018-03-02T07:48:24.583Z,18.50
2018-03-02T07:50:52.212Z,18.50
2018-03-02T07:53:20.578Z,18.50
2018-03-02T07:55:48.210Z,18.50
2018-03-02T07:58:15.789Z,18.50
2018-03-02T08:00:43.355Z,18.50
2018-03-02T08:03:10.977Z,18.50
2018-03-02T08:05:38.724Z,18.50
2018-03-02T08:08:06.340Z,18.50
2018-03-02T08:10:33.964Z,18.50
2018-03-02T08:13:01.598Z,18.50
2018-03-02T08:15:29.185Z,18.50
2018-03-02T08:17:57.591Z,18.50
2018-03-02T08:20:25.235Z,18.50
2018-03-02T08:22:52.820Z,18.50
2018-03-02T08:25:21.171Z,18.50
2018-03-02T08:27:48.840Z,18.50
2018-03-02T08:30:16.424Z,18.50
2018-03-02T08:32:44.008Z,18.50
2018-03-02T08:35:11.620Z,18.50
2018-03-02T08:37:39.444Z,18.50
2018-03-02T08:40:07.966Z,18.60
2018-03-02T08:42:35.650Z,18.50
2018-03-02T08:45:04.033Z,18.50
2018-03-02T08:47:31.729Z,18.50
2018-03-02T08:49:59.329Z,18.50
2018-03-02T08:52:27.549Z,18.50
2018-03-02T08:54:55.240Z,18.50
2018-03-02T08:57:22.867Z,18.50
2018-03-02T08:59:50.473Z,18.50
2018-03-02T09:02:18.070Z,18.60
2018-03-02T09:04:45.784Z,18.50
2018-03-02T09:07:13.390Z,18.50
2018-03-02T09:09:40.997Z,18.60
2018-03-02T09:12:08.586Z,18.60
2018-03-02T09:14:37.073Z,18.60
2018-03-02T09:17:05.462Z,18.50
2018-03-02T09:19:33.020Z,18.50
2018-03-02T09:22:00.645Z,18.60
2018-03-02T09:24:28.225Z,18.60
2018-03-02T09:28:35.470Z,18.60
2018-03-02T09:31:04.219Z,18.50
2018-03-02T09:33:34.698Z,18.50
2018-03-02T09:36:03.263Z,18.60
2018-03-02T09:38:30.834Z,18.50
2018-03-02T09:40:58.427Z,18.60
2018-03-02T09:43:26.863Z,18.50
2018-03-02T09:45:54.435Z,18.50
2018-03-02T09:48:22.027Z,18.50
2018-03-02T09:50:49.591Z,18.50
2018-03-02T09:53:17.187Z,18.50
2018-03-02T09:55:44.844Z,18.50
2018-03-02T09:58:12.431Z,18.50
2018-03-02T10:00:39.999Z,18.50
2018-03-02T10:03:08.578Z,18.50
2018-03-02T10:05:36.644Z,18.50
2018-03-02T10:08:04.281Z,18.50
2018-03-02T10:10:31.930Z,18.50
2018-03-02T10:12:59.648Z,18.50
2018-03-02T10:15:28.568Z,18.50
2018-03-02T10:17:56.156Z,18.50
2018-03-02T10:20:24.095Z,18.50
2018-03-02T10:22:51.731Z,18.50
2018-03-02T10:25:19.384Z,18.50
2018-03-02T10:27:46.968Z,18.50
2018-03-02T10:30:14.596Z,18.60
2018-03-02T10:32:42.185Z,18.50
2018-03-02T10:35:09.818Z,18.50
2018-03-02T10:37:37.487Z,18.50
2018-03-02T10:40:05.101Z,18.50
2018-03-02T10:42:32.675Z,18.60
2018-03-02T10:45:00.248Z,18.60
2018-03-02T10:47:28.561Z,18.50
2018-03-02T10:49:56.250Z,18.60
2018-03-02T10:52:23.879Z,18.60
2018-03-02T10:54:51.487Z,18.50
2018-03-02T10:57:19.080Z,18.50
2018-03-02T10:59:46.638Z,18.60
2018-03-02T11:02:20.362Z,18.60
2018-03-02T11:04:48.044Z,18.60
2018-03-02T11:07:16.447Z,18.60
2018-03-02T11:09:44.832Z,18.60
2018-03-02T11:12:12.452Z,18.50
2018-03-02T11:14:40.036Z,18.60
2018-03-02T11:17:07.623Z,18.60
2018-03-02T11:19:35.794Z,18.60
2018-03-02T11:22:03.429Z,18.60
2018-03-02T11:24:31.019Z,18.60
2018-03-02T11:26:59.496Z,18.60
2018-03-02T11:29:27.135Z,18.60
2018-03-02T11:31:55.596Z,18.60
2018-03-02T11:34:23.956Z,18.50
2018-03-02T11:36:51.595Z,18.60
2018-03-02T11:39:19.263Z,18.60
2018-03-02T11:41:46.928Z,18.60
2018-03-02T11:44:14.571Z,18.60
2018-03-02T11:46:42.156Z,18.60
2018-03-02T11:49:10.183Z,18.60
2018-03-02T11:51:38.286Z,18.60
2018-03-02T11:54:05.875Z,18.60
2018-03-02T11:56:33.468Z,18.50
2018-03-02T11:59:01.090Z,18.60
2018-03-02T12:01:28.686Z,18.60
2018-03-02T12:03:56.317Z,18.50
2018-03-02T12:06:25.900Z,18.60
2018-03-02T12:08:53.576Z,18.60
2018-03-02T12:11:21.227Z,18.60
2018-03-02T12:13:48.815Z,18.60
2018-03-02T12:16:17.189Z,18.50
2018-03-02T12:18:45.620Z,18.60
2018-03-02T12:21:13.185Z,18.50
2018-03-02T12:23:40.808Z,18.60
2018-03-02T12:26:08.422Z,18.60
2018-03-02T12:28:36.084Z,18.50
2018-03-02T12:31:03.954Z,18.60
2018-03-02T12:33:32.330Z,18.50
2018-03-02T12:35:59.925Z,18.50
2018-03-02T12:38:27.519Z,18.50
2018-03-02T12:40:55.313Z,18.50
2018-03-02T12:43:23.720Z,18.60
2018-03-02T12:45:51.418Z,18.50
2018-03-02T12:48:19.062Z,18.50
2018-03-02T12:50:46.649Z,18.50
2018-03-02T12:53:14.330Z,18.50
2018-03-02T12:55:41.969Z,18.50
2018-03-02T12:58:10.504Z,18.50
2018-03-02T13:00:38.797Z,18.50
2018-03-02T13:03:06.426Z,18.50
2018-03-02T13:05:34.847Z,18.50
2018-03-02T13:08:02.433Z,18.50
2018-03-02T13:10:30.010Z,18.50
2018-03-02T13:12:58.395Z,18.50
2018-03-02T13:15:26.096Z,18.50
2018-03-02T13:17:53.715Z,18.50
2018-03-02T13:20:22.976Z,18.50
2018-03-02T13:22:50.586Z,18.50
2018-03-02T13:25:18.157Z,18.50
2018-03-02T13:27:57.770Z,18.50
2018-03-02T13:30:25.452Z,18.50
2018-03-02T13:33:04.998Z,18.50
2018-03-02T13:35:32.595Z,18.50
2018-03-02T13:38:00.199Z,18.50
2018-03-02T13:40:39.639Z,18.50
2018-03-02T13:45:22.088Z,18.50
2018-03-02T13:50:57.764Z,18.50
2018-03-02T13:53:25.343Z,18.40
2018-03-02T13:55:53.007Z,18.50
2018-03-02T13:58:20.821Z,18.50
2018-03-02T14:00:48.564Z,18.50
2018-03-02T14:03:28.076Z,18.50
2018-03-02T14:05:56.022Z,18.40
2018-03-02T14:08:23.588Z,18.50
2018-03-02T14:10:52.058Z,18.40
2018-03-02T14:13:19.620Z,18.40
2018-03-02T14:15:47.311Z,18.40
2018-03-02T14:18:14.953Z,18.40
2018-03-02T14:20:43.325Z,18.40
2018-03-02T14:23:10.912Z,18.40
2018-03-02T14:25:39.112Z,18.40
2018-03-02T14:28:06.727Z,18.40
2018-03-02T14:30:35.350Z,18.40
2018-03-02T14:33:03.009Z,18.30
2018-03-02T14:35:30.700Z,18.30
2018-03-02T14:37:58.323Z,18.30
2018-03-02T14:40:25.924Z,18.30
2018-03-02T14:42:54.112Z,18.30
2018-03-02T14:45:21.813Z,18.30
2018-03-02T14:47:49.372Z,18.30
2018-03-02T14:50:16.959Z,18.30
2018-03-02T14:52:45.776Z,18.30
2018-03-02T14:55:13.360Z,18.30
2018-03-02T14:57:41.679Z,18.40
2018-03-02T15:00:09.340Z,18.30
2018-03-02T15:02:36.967Z,18.40
2018-03-02T15:05:04.552Z,18.40
2018-03-02T15:07:32.154Z,18.40
2018-03-02T15:09:59.731Z,18.40
2018-03-02T15:12:28.060Z,18.50
2018-03-02T15:14:55.623Z,18.50
2018-03-02T15:17:23.199Z,18.50
2018-03-02T15:19:50.783Z,18.50
2018-03-02T15:22:18.383Z,18.60
2018-03-02T15:24:45.983Z,18.60
2018-03-02T15:27:15.303Z,18.60
2018-03-02T15:29:43.808Z,18.60
2018-03-02T15:32:12.387Z,18.60
2018-03-02T15:34:40.415Z,18.60
2018-03-02T15:37:10.288Z,18.70
2018-03-02T15:39:40.717Z,18.60
2018-03-02T15:42:08.363Z,18.70
2018-03-02T15:44:36.016Z,18.70
2018-03-02T15:47:04.220Z,18.70
2018-03-02T15:49:32.800Z,18.80
2018-03-02T15:52:00.404Z,18.70
2018-03-02T15:54:28.371Z,18.80
2018-03-02T15:56:55.955Z,18.80
2018-03-02T15:59:23.523Z,18.80
2018-03-02T16:01:51.111Z,18.90
2018-03-02T16:04:18.695Z,18.90
2018-03-02T16:06:47.151Z,18.90
2018-03-02T16:09:14.736Z,18.80
2018-03-02T16:11:42.364Z,18.90
2018-03-02T16:14:10.161Z,18.90
2018-03-02T16:16:38.099Z,18.90
2018-03-02T16:19:05.731Z,18.90
2018-03-02T16:21:33.788Z,18.90
2018-03-02T16:24:01.461Z,18.90
2018-03-02T16:26:29.127Z,19.00
2018-03-02T16:28:56.697Z,19.00
2018-03-02T16:31:25.784Z,18.90
2018-03-02T16:33:53.367Z,18.90
2018-03-02T16:36:20.963Z,19.00
2018-03-02T16:38:48.526Z,19.00
2018-03-02T16:41:16.206Z,18.90
2018-03-02T16:43:43.787Z,18.90
2018-03-02T16:46:11.419Z,18.90
2018-03-02T16:48:39.060Z,18.80
2018-03-02T16:51:06.647Z,18.80
2018-03-02T16:53:34.236Z,18.80
2018-03-02T16:56:02.061Z,18.80
2018-03-02T16:58:29.648Z,18.80
2018-03-02T17:00:57.260Z,18.80
2018-03-02T17:03:24.953Z,18.70
2018-03-02T17:05:52.535Z,18.70
2018-03-02T17:08:20.876Z,18.70
2018-03-02T17:10:48.499Z,18.70
2018-03-02T17:13:16.056Z,18.70
2018-03-02T17:15:43.644Z,18.70
2018-03-02T17:18:11.235Z,18.70
2018-03-02T17:20:39.031Z,18.70
2018-03-02T17:23:06.623Z,18.70
2018-03-02T17:25:34.410Z,18.60
2018-03-02T17:28:02.156Z,18.60
2018-03-02T17:30:29.728Z,18.60
2018-03-02T17:32:57.358Z,18.60
2018-03-02T17:35:24.924Z,18.60
2018-03-02T17:37:52.499Z,18.60
2018-03-02T17:40:20.107Z,18.60
2018-03-02T17:42:47.704Z,18.60
2018-03-02T17:45:17.203Z,18.60
2018-03-02T17:47:50.536Z,18.60
2018-03-02T17:50:19.208Z,18.60
2018-03-02T17:52:56.561Z,18.60
2018-03-02T17:55:25.156Z,18.60
2018-03-02T17:57:53.010Z,18.50
2018-03-02T18:00:20.567Z,18.60
2018-03-02T18:02:48.128Z,18.60
2018-03-02T18:05:15.690Z,18.60
2018-03-02T18:07:43.254Z,18.60
2018-03-02T18:10:10.815Z,18.60
2018-03-02T18:12:38.695Z,18.60
2018-03-02T18:15:06.265Z,18.50
2018-03-02T18:17:35.003Z,18.60
2018-03-02T18:20:02.616Z,18.50
2018-03-02T18:22:30.969Z,18.60
2018-03-02T18:24:58.537Z,18.50
2018-03-02T18:27:26.127Z,18.60
2018-03-02T18:29:53.748Z,18.50
2018-03-02T18:32:21.538Z,18.60
2018-03-02T18:34:49.159Z,18.60
2018-03-02T18:37:16.910Z,18.60
2018-03-02T18:39:44.483Z,18.60
2018-03-02T18:42:12.074Z,18.60
2018-03-02T18:44:40.416Z,18.60
2018-03-02T18:47:08.000Z,18.60
2018-03-02T18:49:36.386Z,18.60
2018-03-02T18:52:04.822Z,18.60
2018-03-02T18:54:32.411Z,18.50
2018-03-02T18:56:59.991Z,18.60
2018-03-02T18:59:28.328Z,18.60
2018-03-02T19:01:56.174Z,18.60
2018-03-02T19:04:23.741Z,18.60
2018-03-02T19:06:51.488Z,18.60
2018-03-02T19:09:19.308Z,18.60
2018-03-02T19:11:47.655Z,18.60
2018-03-02T19:14:15.268Z,18.50
2018-03-02T19:16:42.889Z,18.60
2018-03-02T19:19:10.473Z,18.60
2018-03-02T19:21:38.480Z,18.60
2018-03-02T19:24:06.078Z,18.60
2018-03-02T19:26:34.713Z,18.60
2018-03-02T19:29:02.302Z,18.60
2018-03-02T19:31:32.706Z,18.60
2018-03-02T19:34:10.438Z,18.60
2018-03-02T19:36:43.749Z,18.50
2018-03-02T19:39:18.987Z,18.50
2018-03-02T19:41:50.288Z,18.50
2018-03-02T19:44:20.894Z,18.50
2018-03-02T19:47:01.098Z,18.50
2018-03-02T19:49:36.338Z,18.50
2018-03-02T19:52:08.348Z,18.50
2018-03-02T19:54:47.858Z,18.50
2018-03-02T19:57:24.139Z,18.50
2018-03-02T20:02:43.199Z,18.50
2018-03-02T20:05:17.565Z,18.50
2018-03-02T20:07:53.471Z,18.50
2018-03-02T20:10:27.072Z,18.50
2018-03-02T20:13:02.109Z,18.50
2018-03-02T20:15:42.908Z,18.50
2018-03-02T20:20:57.416Z,18.50
2018-03-02T20:23:26.950Z,18.50
2018-03-02T20:26:03.724Z,18.50
2018-03-02T20:28:33.413Z,18.50
2018-03-02T20:31:04.617Z,18.50
2018-03-02T20:33:33.298Z,18.50
2018-03-02T20:36:10.750Z,18.50
2018-03-02T20:38:48.220Z,18.50
2018-03-02T20:41:22.456Z,18.60
2018-03-02T20:43:53.019Z,18.50
2018-03-02T20:46:22.940Z,18.50
2018-03-02T20:48:53.224Z,18.50
2018-03-02T20:51:25.592Z,18.50
2018-03-02T20:53:57.176Z,18.50
2018-03-02T20:56:31.402Z,18.60
2018-03-02T20:59:03.673Z,18.50
2018-03-02T21:01:36.899Z,18.50
2018-03-02T21:04:11.338Z,18.50
2018-03-02T21:06:48.624Z,18.50
2018-03-02T21:09:27.219Z,18.50
2018-03-02T21:12:00.127Z,18.50
2018-03-02T21:14:32.855Z,18.50
2018-03-02T21:17:05.892Z,18.50
2018-03-02T21:19:38.264Z,18.50
2018-03-02T21:22:12.529Z,18.50
2018-03-02T21:24:42.473Z,18.50
2018-03-02T21:27:15.543Z,18.50
2018-03-02T21:29:46.879Z,18.50
2018-03-02T21:32:21.893Z,18.50
2018-03-02T21:34:55.309Z,18.50
2018-03-02T21:37:30.698Z,18.50
2018-03-02T21:40:03.765Z,18.50
2018-03-02T21:42:40.270Z,18.50
2018-03-02T21:45:13.136Z,18.50
2018-03-02T21:47:47.614Z,18.50
2018-03-02T21:50:26.912Z,18.50
2018-03-02T21:52:59.125Z,18.50
2018-03-02T21:55:31.440Z,18.50
2018-03-02T21:58:02.628Z,18.50
2018-03-02T22:00:36.594Z,18.50
2018-03-02T22:03:08.450Z,18.50
2018-03-02T22:05:40.461Z,18.50
2018-03-02T22:08:16.724Z,18.50
2018-03-02T22:10:57.511Z,18.50
2018-03-02T22:13:30.580Z,18.50
2018-03-02T22:16:05.040Z,18.60
2018-03-02T22:18:48.100Z,18.50
2018-03-02T22:21:20.946Z,18.50
2018-03-02T22:23:54.200Z,18.50
2018-03-02T22:26:27.394Z,18.50
2018-03-02T22:28:58.638Z,18.50
2018-03-02T22:31:31.417Z,18.50
2018-03-02T22:34:00.678Z,18.50
2018-03-02T22:36:35.445Z,18.50
2018-03-02T22:39:09.352Z,18.60
2018-03-02T22:41:45.614Z,18.50
2018-03-02T22:44:19.727Z,18.50
2018-03-02T22:46:52.315Z,18.50
2018-03-02T22:49:31.638Z,18.50
2018-03-02T22:52:07.799Z,18.50
2018-03-02T22:54:40.572Z,18.50
2018-03-02T22:57:11.750Z,18.50
2018-03-02T22:59:42.558Z,18.50
2018-03-02T23:02:15.443Z,18.50
2018-03-02T23:04:46.604Z,18.50
2018-03-02T23:07:21.308Z,18.50
2018-03-02T23:09:51.948Z,18.50
2018-03-02T23:12:28.498Z,18.50
2018-03-02T23:15:00.503Z,18.50
2018-03-02T23:17:37.559Z,18.50
2018-03-02T23:20:11.182Z,18.50
2018-03-02T23:22:47.147Z,18.50
2018-03-02T23:25:21.943Z,18.50
2018-03-02T23:27:55.345Z,18.50
2018-03-02T23:30:25.765Z,18.50
2018-03-02T23:33:01.929Z,18.50
2018-03-02T23:35:32.593Z,18.50
2018-03-02T23:40:48.769Z,18.50
2018-03-02T23:43:22.695Z,18.50
2018-03-02T23:45:55.048Z,18.50
2018-03-02T23:48:29.207Z,18.50
2018-03-02T23:51:02.447Z,18.50
2018-03-02T23:53:40.066Z,18.50
2018-03-02T23:56:16.411Z,18.50
2018-03-02T23:58:48.858Z,18.50
